sensor_id;sensor_type;location;lat;lon;timestamp;pressure;altitude;pressure_sealevel;temperature;humidity
64521;BME280;50896;46.714;17.322;2023-05-20T00:02:11;100824.25;;;13.43;100.00
64521;BME280;50896;46.714;17.322;2023-05-20T00:04:38;100826.91;;;13.43;100.00
64521;BME280;50896;46.714;17.322;2023-05-20T00:07:08;100812.72;;;13.34;100.00
64521;BME280;50896;46.714;17.322;2023-05-20T00:09:36;100823.59;;;13.33;100.00
64521;BME280;50896;46.714;17.322;2023-05-20T00:12:03;100813.09;;;13.31;100.00
64521;BME280;50896;46.714;17.322;2023-05-20T00:14:30;100812.75;;;13.26;100.00
64521;BME280;50896;46.714;17.322;2023-05-20T00:16:57;100817.44;;;13.24;100.00
64521;BME280;50896;46.714;17.322;2023-05-20T00:19:24;100815.94;;;13.30;100.00
64521;BME280;50896;46.714;17.322;2023-05-20T00:21:51;100805.56;;;13.27;100.00
64521;BME280;50896;46.714;17.322;2023-05-20T00:24:18;100802.41;;;13.23;100.00
64521;BME280;50896;46.714;17.322;2023-05-20T00:26:45;100812.91;;;13.25;100.00
64521;BME280;50896;46.714;17.322;2023-05-20T00:29:11;100810.09;;;13.26;100.00
64521;BME280;50896;46.714;17.322;2023-05-20T00:31:38;100808.09;;;13.20;100.00
64521;BME280;50896;46.714;17.322;2023-05-20T00:34:05;100806.25;;;13.21;100.00
64521;BME280;50896;46.714;17.322;2023-05-20T00:36:34;100805.75;;;13.17;100.00
64521;BME280;50896;46.714;17.322;2023-05-20T00:39:01;100810.25;;;13.16;100.00
64521;BME280;50896;46.714;17.322;2023-05-20T00:41:27;100814.97;;;13.14;100.00
64521;BME280;50896;46.714;17.322;2023-05-20T00:43:55;100804.09;;;13.16;100.00
64521;BME280;50896;46.714;17.322;2023-05-20T00:46:25;100806.91;;;13.23;100.00
64521;BME280;50896;46.714;17.322;2023-05-20T00:48:54;100804.09;;;13.24;100.00
64521;BME280;50896;46.714;17.322;2023-05-20T00:51:20;100793.41;;;13.24;100.00
64521;BME280;50896;46.714;17.322;2023-05-20T00:53:48;100796.72;;;13.34;100.00
64521;BME280;50896;46.714;17.322;2023-05-20T00:56:15;100805.41;;;13.37;100.00
64521;BME280;50896;46.714;17.322;2023-05-20T00:58:42;100803.88;;;13.42;100.00
64521;BME280;50896;46.714;17.322;2023-05-20T01:01:08;100804.72;;;13.43;100.00
64521;BME280;50896;46.714;17.322;2023-05-20T01:03:35;100799.22;;;13.44;100.00
64521;BME280;50896;46.714;17.322;2023-05-20T01:06:03;100800.72;;;13.47;100.00
64521;BME280;50896;46.714;17.322;2023-05-20T01:08:30;100792.53;;;13.48;100.00
64521;BME280;50896;46.714;17.322;2023-05-20T01:11:07;100791.81;;;13.55;100.00
64521;BME280;50896;46.714;17.322;2023-05-20T01:13:42;100787.34;;;13.55;100.00
64521;BME280;50896;46.714;17.322;2023-05-20T01:16:10;100800.53;;;13.57;100.00
64521;BME280;50896;46.714;17.322;2023-05-20T01:18:40;100809.31;;;13.65;100.00
64521;BME280;50896;46.714;17.322;2023-05-20T01:21:10;100803.84;;;13.59;100.00
64521;BME280;50896;46.714;17.322;2023-05-20T01:23:39;100791.81;;;13.55;100.00
64521;BME280;50896;46.714;17.322;2023-05-20T01:26:08;100793.84;;;13.53;100.00
64521;BME280;50896;46.714;17.322;2023-05-20T01:28:36;100800.88;;;13.54;100.00
64521;BME280;50896;46.714;17.322;2023-05-20T01:31:10;100794.50;;;13.55;100.00
64521;BME280;50896;46.714;17.322;2023-05-20T01:33:40;100797.16;;;13.55;100.00
64521;BME280;50896;46.714;17.322;2023-05-20T01:36:08;100792.84;;;13.54;100.00
64521;BME280;50896;46.714;17.322;2023-05-20T01:38:36;100793.50;;;13.56;100.00
64521;BME280;50896;46.714;17.322;2023-05-20T01:41:05;100790.34;;;13.52;100.00
64521;BME280;50896;46.714;17.322;2023-05-20T01:43:33;100795.00;;;13.58;100.00
64521;BME280;50896;46.714;17.322;2023-05-20T01:46:00;100791.66;;;13.56;100.00
64521;BME280;50896;46.714;17.322;2023-05-20T01:48:28;100794.81;;;13.60;100.00
64521;BME280;50896;46.714;17.322;2023-05-20T01:50:55;100792.34;;;13.58;100.00
64521;BME280;50896;46.714;17.322;2023-05-20T01:53:22;100778.28;;;13.56;100.00
64521;BME280;50896;46.714;17.322;2023-05-20T01:55:49;100787.47;;;13.62;100.00
64521;BME280;50896;46.714;17.322;2023-05-20T01:58:16;100782.97;;;13.62;100.00
64521;BME280;50896;46.714;17.322;2023-05-20T02:00:43;100783.78;;;13.63;100.00
64521;BME280;50896;46.714;17.322;2023-05-20T02:03:10;100767.63;;;13.56;100.00
64521;BME280;50896;46.714;17.322;2023-05-20T02:05:37;100787.94;;;13.65;100.00
64521;BME280;50896;46.714;17.322;2023-05-20T02:08:04;100776.09;;;13.68;100.00
64521;BME280;50896;46.714;17.322;2023-05-20T02:10:31;100777.59;;;13.71;100.00
64521;BME280;50896;46.714;17.322;2023-05-20T02:12:58;100772.41;;;13.69;100.00
64521;BME280;50896;46.714;17.322;2023-05-20T02:15:25;100766.75;;;13.64;100.00
64521;BME280;50896;46.714;17.322;2023-05-20T02:17:52;100774.59;;;13.65;100.00
64521;BME280;50896;46.714;17.322;2023-05-20T02:20:19;100769.06;;;13.67;100.00
64521;BME280;50896;46.714;17.322;2023-05-20T02:22:46;100776.91;;;13.68;100.00
64521;BME280;50896;46.714;17.322;2023-05-20T02:25:13;100767.09;;;13.69;100.00
64521;BME280;50896;46.714;17.322;2023-05-20T02:27:42;100768.72;;;13.70;100.00
64521;BME280;50896;46.714;17.322;2023-05-20T02:30:09;100771.06;;;13.73;100.00
64521;BME280;50896;46.714;17.322;2023-05-20T02:32:36;100766.53;;;13.74;100.00
64521;BME280;50896;46.714;17.322;2023-05-20T02:35:03;100767.53;;;13.73;100.00
64521;BME280;50896;46.714;17.322;2023-05-20T02:37:31;100768.72;;;13.70;100.00
64521;BME280;50896;46.714;17.322;2023-05-20T02:39:57;100774.59;;;13.65;100.00
64521;BME280;50896;46.714;17.322;2023-05-20T02:42:24;100770.13;;;13.58;100.00
64521;BME280;50896;46.714;17.322;2023-05-20T02:44:51;100766.16;;;13.54;100.00
64521;BME280;50896;46.714;17.322;2023-05-20T02:47:22;100752.78;;;13.54;100.00
64521;BME280;50896;46.714;17.322;2023-05-20T02:49:48;100761.63;;;13.54;100.00
64521;BME280;50896;46.714;17.322;2023-05-20T02:52:15;100772.13;;;13.56;100.00
64521;BME280;50896;46.714;17.322;2023-05-20T02:54:42;100775.63;;;13.56;100.00
64521;BME280;50896;46.714;17.322;2023-05-20T02:57:09;100788.88;;;13.49;100.00
64521;BME280;50896;46.714;17.322;2023-05-20T02:59:36;100793.69;;;13.46;100.00
64521;BME280;50896;46.714;17.322;2023-05-20T03:02:03;100803.75;;;13.44;100.00
64521;BME280;50896;46.714;17.322;2023-05-20T03:04:30;100799.41;;;13.43;100.00
64521;BME280;50896;46.714;17.322;2023-05-20T03:06:57;100793.06;;;13.44;100.00
64521;BME280;50896;46.714;17.322;2023-05-20T03:09:24;100793.84;;;13.53;100.00
64521;BME280;50896;46.714;17.322;2023-05-20T03:11:51;100794.44;;;13.71;100.00
64521;BME280;50896;46.714;17.322;2023-05-20T03:14:17;100802.28;;;13.73;100.00
64521;BME280;50896;46.714;17.322;2023-05-20T03:16:44;100794.97;;;13.66;100.00
64521;BME280;50896;46.714;17.322;2023-05-20T03:19:11;100798.63;;;13.65;100.00
64521;BME280;50896;46.714;17.322;2023-05-20T03:21:38;100803.50;;;13.62;100.00
64521;BME280;50896;46.714;17.322;2023-05-20T03:24:06;100800.34;;;13.58;100.00
64521;BME280;50896;46.714;17.322;2023-05-20T03:26:33;100812.00;;;13.65;100.00
64521;BME280;50896;46.714;17.322;2023-05-20T03:29:04;100809.31;;;13.74;100.00
64521;BME280;50896;46.714;17.322;2023-05-20T03:31:31;100812.47;;;13.77;100.00
64521;BME280;50896;46.714;17.322;2023-05-20T03:33:58;100807.44;;;13.74;100.00
64521;BME280;50896;46.714;17.322;2023-05-20T03:36:25;100818.28;;;13.81;100.00
64521;BME280;50896;46.714;17.322;2023-05-20T03:38:52;100815.44;;;13.82;100.00
64521;BME280;50896;46.714;17.322;2023-05-20T03:41:18;100810.75;;;13.84;100.00
64521;BME280;50896;46.714;17.322;2023-05-20T03:43:45;100812.72;;;13.91;100.00
64521;BME280;50896;46.714;17.322;2023-05-20T03:46:12;100792.22;;;13.83;100.00
64521;BME280;50896;46.714;17.322;2023-05-20T03:48:39;100814.53;;;13.98;100.00
64521;BME280;50896;46.714;17.322;2023-05-20T03:51:06;100797.78;;;14.05;100.00
64521;BME280;50896;46.714;17.322;2023-05-20T03:53:33;100809.44;;;14.12;100.00
64521;BME280;50896;46.714;17.322;2023-05-20T03:56:00;100817.41;;;14.20;100.00
64521;BME280;50896;46.714;17.322;2023-05-20T03:58:28;100819.50;;;14.33;100.00
64521;BME280;50896;46.714;17.322;2023-05-20T04:00:56;100812.63;;;14.39;100.00
64521;BME280;50896;46.714;17.322;2023-05-20T04:03:24;100810.25;;;14.44;100.00
64521;BME280;50896;46.714;17.322;2023-05-20T04:05:51;100811.72;;;14.46;100.00
64521;BME280;50896;46.714;17.322;2023-05-20T04:08:20;100810.91;;;14.46;100.00
64521;BME280;50896;46.714;17.322;2023-05-20T04:10:47;100814.72;;;14.51;100.00
64521;BME280;50896;46.714;17.322;2023-05-20T04:13:15;100810.00;;;14.53;100.00
64521;BME280;50896;46.714;17.322;2023-05-20T04:15:42;100812.28;;;14.65;100.00
64521;BME280;50896;46.714;17.322;2023-05-20T04:18:10;100806.41;;;14.69;100.00
64521;BME280;50896;46.714;17.322;2023-05-20T04:20:37;100808.72;;;14.73;100.00
64521;BME280;50896;46.714;17.322;2023-05-20T04:23:07;100813.53;;;14.77;100.00
64521;BME280;50896;46.714;17.322;2023-05-20T04:25:35;100808.84;;;14.79;100.00
64521;BME280;50896;46.714;17.322;2023-05-20T04:28:02;100805.63;;;14.84;100.00
64521;BME280;50896;46.714;17.322;2023-05-20T04:30:30;100804.25;;;14.88;100.00
64521;BME280;50896;46.714;17.322;2023-05-20T04:32:59;100810.22;;;14.90;100.00
64521;BME280;50896;46.714;17.322;2023-05-20T04:35:30;100808.59;;;14.89;100.00
64521;BME280;50896;46.714;17.322;2023-05-20T04:38:01;100807.56;;;14.90;100.00
64521;BME280;50896;46.714;17.322;2023-05-20T04:40:28;100806.28;;;15.01;100.00
64521;BME280;50896;46.714;17.322;2023-05-20T04:42:58;100804.81;;;14.98;100.00
64521;BME280;50896;46.714;17.322;2023-05-20T04:45:26;100805.75;;;15.06;100.00
64521;BME280;50896;46.714;17.322;2023-05-20T04:47:53;100809.09;;;15.08;100.00
64521;BME280;50896;46.714;17.322;2023-05-20T04:50:20;100807.53;;;15.13;100.00
64521;BME280;50896;46.714;17.322;2023-05-20T04:52:47;100806.50;;;15.14;100.00
64521;BME280;50896;46.714;17.322;2023-05-20T04:55:15;100808.44;;;15.20;100.00
64521;BME280;50896;46.714;17.322;2023-05-20T04:57:41;100809.75;;;15.25;100.00
64521;BME280;50896;46.714;17.322;2023-05-20T05:00:10;100805.78;;;15.35;100.00
64521;BME280;50896;46.714;17.322;2023-05-20T05:02:38;100807.09;;;15.40;100.00
64521;BME280;50896;46.714;17.322;2023-05-20T05:05:06;100810.88;;;15.45;100.00
64521;BME280;50896;46.714;17.322;2023-05-20T05:07:33;100799.59;;;15.50;100.00
64521;BME280;50896;46.714;17.322;2023-05-20T05:10:00;100795.53;;;15.54;100.00
64521;BME280;50896;46.714;17.322;2023-05-20T05:12:29;100797.66;;;15.59;100.00
64521;BME280;50896;46.714;17.322;2023-05-20T05:14:56;100790.59;;;15.72;100.00
64521;BME280;50896;46.714;17.322;2023-05-20T05:17:25;100792.94;;;15.76;100.00
64521;BME280;50896;46.714;17.322;2023-05-20T05:19:52;100793.50;;;15.86;100.00
64521;BME280;50896;46.714;17.322;2023-05-20T05:22:19;100798.13;;;15.92;100.00
64521;BME280;50896;46.714;17.322;2023-05-20T05:24:47;100792.56;;;15.94;100.00
64521;BME280;50896;46.714;17.322;2023-05-20T05:27:14;100800.41;;;15.95;100.00
64521;BME280;50896;46.714;17.322;2023-05-20T05:29:41;100779.69;;;15.89;100.00
64521;BME280;50896;46.714;17.322;2023-05-20T05:32:08;100785.97;;;15.96;100.00
64521;BME280;50896;46.714;17.322;2023-05-20T05:34:34;100790.22;;;16.05;100.00
64521;BME280;50896;46.714;17.322;2023-05-20T05:37:02;100788.41;;;16.13;100.00
64521;BME280;50896;46.714;17.322;2023-05-20T05:39:29;100788.78;;;16.25;100.00
64521;BME280;50896;46.714;17.322;2023-05-20T05:41:56;100796.44;;;16.28;100.00
64521;BME280;50896;46.714;17.322;2023-05-20T05:44:23;100797.91;;;16.30;100.00
64521;BME280;50896;46.714;17.322;2023-05-20T05:46:50;100794.38;;;16.30;100.00
64521;BME280;50896;46.714;17.322;2023-05-20T05:49:17;100802.97;;;16.40;100.00
64521;BME280;50896;46.714;17.322;2023-05-20T05:51:44;100800.91;;;16.42;100.00
64521;BME280;50896;46.714;17.322;2023-05-20T05:54:11;100807.00;;;16.51;100.00
64521;BME280;50896;46.714;17.322;2023-05-20T05:56:38;100813.63;;;16.55;100.00
64521;BME280;50896;46.714;17.322;2023-05-20T05:59:05;100814.72;;;16.61;100.00
64521;BME280;50896;46.714;17.322;2023-05-20T06:01:31;100819.13;;;16.68;100.00
64521;BME280;50896;46.714;17.322;2023-05-20T06:03:58;100826.16;;;16.69;100.00
64521;BME280;50896;46.714;17.322;2023-05-20T06:06:25;100818.09;;;16.69;100.00
64521;BME280;50896;46.714;17.322;2023-05-20T06:08:52;100824.28;;;16.70;100.00
64521;BME280;50896;46.714;17.322;2023-05-20T06:11:19;100828.84;;;16.69;100.00
64521;BME280;50896;46.714;17.322;2023-05-20T06:13:47;100823.47;;;16.69;100.00
64521;BME280;50896;46.714;17.322;2023-05-20T06:16:14;100819.44;;;16.80;100.00
64521;BME280;50896;46.714;17.322;2023-05-20T06:18:42;100815.47;;;16.76;100.00
64521;BME280;50896;46.714;17.322;2023-05-20T06:21:09;100825.16;;;16.77;100.00
64521;BME280;50896;46.714;17.322;2023-05-20T06:23:36;100819.88;;;16.84;100.00
64521;BME280;50896;46.714;17.322;2023-05-20T06:26:05;100827.28;;;16.82;100.00
64521;BME280;50896;46.714;17.322;2023-05-20T06:28:32;100827.28;;;16.82;100.00
64521;BME280;50896;46.714;17.322;2023-05-20T06:30:59;100814.63;;;16.75;100.00
64521;BME280;50896;46.714;17.322;2023-05-20T06:33:29;100823.47;;;16.69;100.00
64521;BME280;50896;46.714;17.322;2023-05-20T06:36:00;100822.81;;;16.67;100.00
64521;BME280;50896;46.714;17.322;2023-05-20T06:38:31;100823.91;;;16.73;100.00
64521;BME280;50896;46.714;17.322;2023-05-20T06:41:00;100815.78;;;16.88;100.00
64521;BME280;50896;46.714;17.322;2023-05-20T06:43:28;100815.34;;;16.84;100.00
64521;BME280;50896;46.714;17.322;2023-05-20T06:46:03;100822.53;;;16.84;100.00
64521;BME280;50896;46.714;17.322;2023-05-20T06:48:56;100822.03;;;16.88;100.00
64521;BME280;50896;46.714;17.322;2023-05-20T06:51:26;100814.09;;;16.87;100.00
64521;BME280;50896;46.714;17.322;2023-05-20T06:53:54;100815.84;;;16.95;100.00
64521;BME280;50896;46.714;17.322;2023-05-20T06:56:21;100823.31;;;16.99;100.00
64521;BME280;50896;46.714;17.322;2023-05-20T06:58:48;100816.47;;;16.97;100.00
64521;BME280;50896;46.714;17.322;2023-05-20T07:01:15;100814.91;;;17.02;100.00
64521;BME280;50896;46.714;17.322;2023-05-20T07:03:44;100806.88;;;17.09;100.00
64521;BME280;50896;46.714;17.322;2023-05-20T07:09:12;100800.56;;;17.23;100.00
64521;BME280;50896;46.714;17.322;2023-05-20T07:11:38;100799.78;;;17.30;100.00
64521;BME280;50896;46.714;17.322;2023-05-20T07:14:05;100798.97;;;17.29;100.00
64521;BME280;50896;46.714;17.322;2023-05-20T07:16:34;100804.47;;;17.21;100.00
64521;BME280;50896;46.714;17.322;2023-05-20T07:19:03;100800.31;;;17.18;100.00
64521;BME280;50896;46.714;17.322;2023-05-20T07:21:31;100801.69;;;17.36;100.00
64521;BME280;50896;46.714;17.322;2023-05-20T07:24:16;100800.66;;;17.37;100.00
64521;BME280;50896;46.714;17.322;2023-05-20T07:26:43;100795.00;;;17.25;100.00
64521;BME280;50896;46.714;17.322;2023-05-20T07:29:11;100799.16;;;17.28;100.00
64521;BME280;50896;46.714;17.322;2023-05-20T07:31:38;100793.38;;;17.31;100.00
64521;BME280;50896;46.714;17.322;2023-05-20T07:34:05;100793.59;;;17.29;100.00
64521;BME280;50896;46.714;17.322;2023-05-20T07:36:32;100785.75;;;17.34;100.00
64521;BME280;50896;46.714;17.322;2023-05-20T07:39:03;100780.25;;;17.49;100.00
64521;BME280;50896;46.714;17.322;2023-05-20T07:41:36;100781.97;;;17.64;100.00
64521;BME280;50896;46.714;17.322;2023-05-20T07:44:05;100776.16;;;17.60;100.00
64521;BME280;50896;46.714;17.322;2023-05-20T07:46:37;100772.84;;;17.58;100.00
64521;BME280;50896;46.714;17.322;2023-05-20T07:49:05;100775.97;;;17.62;100.00
64521;BME280;50896;46.714;17.322;2023-05-20T07:51:33;100779.88;;;17.59;100.00
64521;BME280;50896;46.714;17.322;2023-05-20T07:54:00;100776.94;;;17.54;100.00
64521;BME280;50896;46.714;17.322;2023-05-20T07:56:27;100773.66;;;17.52;100.00
64521;BME280;50896;46.714;17.322;2023-05-20T07:58:56;100775.13;;;17.54;100.00
64521;BME280;50896;46.714;17.322;2023-05-20T08:01:27;100773.66;;;17.52;100.00
64521;BME280;50896;46.714;17.322;2023-05-20T08:03:54;100770.34;;;17.56;100.00
64521;BME280;50896;46.714;17.322;2023-05-20T08:06:23;100766.19;;;17.54;100.00
64521;BME280;50896;46.714;17.322;2023-05-20T08:09:19;100761.31;;;17.64;100.00
64521;BME280;50896;46.714;17.322;2023-05-20T08:12:03;100757.22;;;17.82;100.00
64521;BME280;50896;46.714;17.322;2023-05-20T08:14:33;100762.03;;;17.93;100.00
64521;BME280;50896;46.714;17.322;2023-05-20T08:17:00;100761.44;;;17.98;100.00
64521;BME280;50896;46.714;17.322;2023-05-20T08:19:27;100762.28;;;18.05;100.00
64521;BME280;50896;46.714;17.322;2023-05-20T08:21:54;100764.16;;;18.11;100.00
64521;BME280;50896;46.714;17.322;2023-05-20T08:24:21;100766.66;;;18.13;100.00
64521;BME280;50896;46.714;17.322;2023-05-20T08:26:48;100765.41;;;18.15;100.00
64521;BME280;50896;46.714;17.322;2023-05-20T08:29:17;100751.13;;;18.15;100.00
64521;BME280;50896;46.714;17.322;2023-05-20T08:31:43;100755.06;;;18.19;100.00
64521;BME280;50896;46.714;17.322;2023-05-20T08:34:11;100755.28;;;18.17;100.00
64521;BME280;50896;46.714;17.322;2023-05-20T08:36:38;100748.88;;;18.18;100.00
64521;BME280;50896;46.714;17.322;2023-05-20T08:39:05;100754.66;;;18.22;100.00
64521;BME280;50896;46.714;17.322;2023-05-20T08:41:32;100747.00;;;18.19;100.00
64521;BME280;50896;46.714;17.322;2023-05-20T08:44:00;100750.50;;;18.19;100.00
64521;BME280;50896;46.714;17.322;2023-05-20T08:46:29;100757.78;;;18.25;100.00
64521;BME280;50896;46.714;17.322;2023-05-20T08:48:57;100756.94;;;18.32;100.00
64521;BME280;50896;46.714;17.322;2023-05-20T08:51:26;100753.63;;;18.36;100.00
64521;BME280;50896;46.714;17.322;2023-05-20T08:53:54;100759.69;;;18.52;100.00
64521;BME280;50896;46.714;17.322;2023-05-20T08:56:21;100759.66;;;18.58;100.00
64521;BME280;50896;46.714;17.322;2023-05-20T08:58:49;100754.91;;;18.67;100.00
64521;BME280;50896;46.714;17.322;2023-05-20T09:01:16;100750.13;;;18.76;100.00
64521;BME280;50896;46.714;17.322;2023-05-20T09:03:43;100747.84;;;18.86;100.00
64521;BME280;50896;46.714;17.322;2023-05-20T09:06:15;100749.50;;;18.81;100.00
64521;BME280;50896;46.714;17.322;2023-05-20T09:08:42;100748.06;;;18.85;100.00
64521;BME280;50896;46.714;17.322;2023-05-20T09:11:10;100747.66;;;18.88;100.00
64521;BME280;50896;46.714;17.322;2023-05-20T09:13:37;100739.16;;;18.84;100.00
64521;BME280;50896;46.714;17.322;2023-05-20T09:16:04;100736.25;;;18.79;100.00
64521;BME280;50896;46.714;17.322;2023-05-20T09:18:31;100739.59;;;18.81;100.00
64521;BME280;50896;46.714;17.322;2023-05-20T09:21:03;100732.13;;;18.90;100.00
64521;BME280;50896;46.714;17.322;2023-05-20T09:23:35;100741.22;;;19.02;100.00
64521;BME280;50896;46.714;17.322;2023-05-20T09:26:03;100739.41;;;18.89;100.00
64521;BME280;50896;46.714;17.322;2023-05-20T09:28:30;100726.31;;;18.93;100.00
64521;BME280;50896;46.714;17.322;2023-05-20T09:30:58;100723.63;;;19.00;100.00
64521;BME280;50896;46.714;17.322;2023-05-20T09:33:29;100725.06;;;19.09;100.00
64521;BME280;50896;46.714;17.322;2023-05-20T09:36:02;100720.91;;;19.00;100.00
64521;BME280;50896;46.714;17.322;2023-05-20T09:38:36;100715.94;;;19.03;100.00
64521;BME280;50896;46.714;17.322;2023-05-20T09:41:10;100710.75;;;19.08;100.00
64521;BME280;50896;46.714;17.322;2023-05-20T09:43:38;100702.84;;;19.13;100.00
64521;BME280;50896;46.714;17.322;2023-05-20T09:46:06;100720.84;;;19.26;100.00
64521;BME280;50896;46.714;17.322;2023-05-20T09:48:37;100711.72;;;19.34;100.00
64521;BME280;50896;46.714;17.322;2023-05-20T09:51:04;100710.59;;;19.49;100.00
64521;BME280;50896;46.714;17.322;2023-05-20T09:53:32;100711.44;;;19.49;100.00
64521;BME280;50896;46.714;17.322;2023-05-20T09:55:59;100710.75;;;19.60;100.00
64521;BME280;50896;46.714;17.322;2023-05-20T09:58:28;100702.47;;;19.62;100.00
64521;BME280;50896;46.714;17.322;2023-05-20T10:00:55;100702.81;;;19.72;100.00
64521;BME280;50896;46.714;17.322;2023-05-20T10:03:23;100713.63;;;19.66;100.00
64521;BME280;50896;46.714;17.322;2023-05-20T10:09:04;100701.19;;;19.64;100.00
64521;BME280;50896;46.714;17.322;2023-05-20T10:12:00;100698.31;;;19.66;100.00
64521;BME280;50896;46.714;17.322;2023-05-20T10:14:49;100693.31;;;19.63;100.00
64521;BME280;50896;46.714;17.322;2023-05-20T10:17:39;100696.63;;;19.65;100.00
64521;BME280;50896;46.714;17.322;2023-05-20T10:20:09;100694.16;;;19.63;100.00
64521;BME280;50896;46.714;17.322;2023-05-20T10:22:38;100689.94;;;19.74;100.00
64521;BME280;50896;46.714;17.322;2023-05-20T10:25:23;100684.31;;;19.83;100.00
64521;BME280;50896;46.714;17.322;2023-05-20T10:28:06;100694.06;;;19.84;100.00
64521;BME280;50896;46.714;17.322;2023-05-20T10:30:33;100684.06;;;19.91;100.00
64521;BME280;50896;46.714;17.322;2023-05-20T10:33:03;100680.13;;;19.87;100.00
64521;BME280;50896;46.714;17.322;2023-05-20T10:35:31;100685.53;;;19.87;100.00
64521;BME280;50896;46.714;17.322;2023-05-20T10:38:09;100691.94;;;19.92;100.00
64521;BME280;50896;46.714;17.322;2023-05-20T10:40:37;100698.06;;;20.06;100.00
64521;BME280;50896;46.714;17.322;2023-05-20T10:43:11;100691.03;;;20.05;100.00
64521;BME280;50896;46.714;17.322;2023-05-20T10:45:53;100695.38;;;20.06;100.00
64521;BME280;50896;46.714;17.322;2023-05-20T10:48:23;100693.09;;;20.03;100.00
64521;BME280;50896;46.714;17.322;2023-05-20T10:50:55;100681.38;;;20.16;100.00
64521;BME280;50896;46.714;17.322;2023-05-20T10:53:24;100679.81;;;20.34;100.00
64521;BME280;50896;46.714;17.322;2023-05-20T10:55:59;100675.56;;;20.44;100.00
64521;BME280;50896;46.714;17.322;2023-05-20T10:58:26;100690.75;;;20.64;100.00
64521;BME280;50896;46.714;17.322;2023-05-20T11:00:54;100674.06;;;20.74;100.00
64521;BME280;50896;46.714;17.322;2023-05-20T11:03:22;100687.97;;;20.96;100.00
64521;BME280;50896;46.714;17.322;2023-05-20T11:05:49;100687.91;;;21.21;100.00
64521;BME280;50896;46.714;17.322;2023-05-20T11:08:17;100671.41;;;21.41;100.00
64521;BME280;50896;46.714;17.322;2023-05-20T11:10:55;100676.94;;;21.53;100.00
64521;BME280;50896;46.714;17.322;2023-05-20T11:13:23;100669.31;;;21.62;100.00
64521;BME280;50896;46.714;17.322;2023-05-20T11:15:51;100669.00;;;21.70;100.00
64521;BME280;50896;46.714;17.322;2023-05-20T11:18:18;100677.63;;;21.91;100.00
64521;BME280;50896;46.714;17.322;2023-05-20T11:20:45;100668.03;;;22.07;100.00
64521;BME280;50896;46.714;17.322;2023-05-20T11:23:13;100660.84;;;22.12;100.00
64521;BME280;50896;46.714;17.322;2023-05-20T11:25:41;100655.34;;;22.19;100.00
64521;BME280;50896;46.714;17.322;2023-05-20T11:30:44;100658.63;;;22.09;100.00
64521;BME280;50896;46.714;17.322;2023-05-20T11:33:12;100658.72;;;22.14;100.00
64521;BME280;50896;46.714;17.322;2023-05-20T11:35:52;100649.06;;;22.07;100.00
64521;BME280;50896;46.714;17.322;2023-05-20T11:38:20;100652.38;;;22.21;100.00
64521;BME280;50896;46.714;17.322;2023-05-20T11:40:54;100644.25;;;22.32;100.00
64521;BME280;50896;46.714;17.322;2023-05-20T11:43:22;100643.47;;;22.44;100.00
64521;BME280;50896;46.714;17.322;2023-05-20T11:45:57;100646.06;;;22.50;100.00
64521;BME280;50896;46.714;17.322;2023-05-20T11:48:27;100643.94;;;22.64;100.00
64521;BME280;50896;46.714;17.322;2023-05-20T11:50:55;100644.06;;;22.69;100.00
64521;BME280;50896;46.714;17.322;2023-05-20T11:53:22;100638.78;;;22.51;100.00
64521;BME280;50896;46.714;17.322;2023-05-20T11:55:54;100640.41;;;22.40;100.00
64521;BME280;50896;46.714;17.322;2023-05-20T11:58:26;100642.19;;;22.34;100.00
64521;BME280;50896;46.714;17.322;2023-05-20T12:00:53;100633.44;;;22.32;100.00
64521;BME280;50896;46.714;17.322;2023-05-20T12:03:35;100638.50;;;22.29;100.00
64521;BME280;50896;46.714;17.322;2023-05-20T12:06:02;100639.91;;;22.19;100.00
64521;BME280;50896;46.714;17.322;2023-05-20T12:08:29;100635.53;;;22.07;100.00
64521;BME280;50896;46.714;17.322;2023-05-20T12:10:56;100632.94;;;22.00;100.00
64521;BME280;50896;46.714;17.322;2023-05-20T12:13:23;100627.53;;;22.00;100.00
64521;BME280;50896;46.714;17.322;2023-05-20T12:15:50;100627.59;;;21.81;100.00
64521;BME280;50896;46.714;17.322;2023-05-20T12:18:17;100631.47;;;21.74;100.00
64521;BME280;50896;46.714;17.322;2023-05-20T12:20:44;100624.84;;;21.70;100.00
64521;BME280;50896;46.714;17.322;2023-05-20T12:23:11;100624.41;;;21.73;100.00
64521;BME280;50896;46.714;17.322;2023-05-20T12:25:37;100627.47;;;21.76;100.00
64521;BME280;50896;46.714;17.322;2023-05-20T12:28:04;100622.84;;;21.65;100.00
64521;BME280;50896;46.714;17.322;2023-05-20T12:30:32;100615.44;;;21.60;100.00
64521;BME280;50896;46.714;17.322;2023-05-20T12:32:59;100626.94;;;21.56;100.00
64521;BME280;50896;46.714;17.322;2023-05-20T12:35:41;100629.28;;;21.52;100.00
64521;BME280;50896;46.714;17.322;2023-05-20T12:38:08;100622.44;;;21.49;100.00
64521;BME280;50896;46.714;17.322;2023-05-20T12:40:36;100617.34;;;21.41;100.00
64521;BME280;50896;46.714;17.322;2023-05-20T12:43:04;100614.94;;;21.33;100.00
64521;BME280;50896;46.714;17.322;2023-05-20T12:45:31;100608.72;;;21.32;100.00
64521;BME280;50896;46.714;17.322;2023-05-20T12:47:58;100605.31;;;21.37;100.00